Airfield :
LOGIN :

Register | Disclaimer

   EN    FR    IT 

 










Legend :    VFR   Marginal VFR   IFR   Intensive IFR   Very Intensive IFR
Visi :
Ceiling :
>= 8 km
>= 3000ft
5 to 8 km
1000 to 3000 ft
1500m to 5 km
500 to 1000 ft
800 to 1500m
200 to 500 ft
< 800m
< 200 ft
Symbols :   Thunderstorms  Fog  Heavy snow  Heavy precipitations  Wind > 20 kt
SIGMETs :     Misc.  Thunderstorms  Icing  Turbulence  Mountain Waves  Volcanic Ashes






- Airport Elevation : 1521 ft
- IATA code : NCY


LFLP - Annecy

CURRENT METAR :
  • 250730Z AUTO 00000KT 0250 R04/0400N FZFG VV/// M04/M04 Q1033 TEMPO 4000 BR BKN002

EXPIRED METARs :
  • 250700Z AUTO VRB02KT 0350 0300 R04/0400N FZFG VV/// M04/M04 Q1033 NOSIG
  • 250630Z AUTO 02002KT 0500 0250 R04/0325N FZFG VV/// M04/M04 Q1033 TEMPO 4000 BR BKN002
  • 250600Z AUTO 05002KT 1200 0800 R04/1100U BCFG VV/// M04/M04 Q1033 TEMPO 4000 BR BECMG NSC
  • 250530Z AUTO VRB02KT 5000 BR OVC002 M03/M04 Q1033 BECMG NSC
  • 250500Z AUTO VRB02KT 5000 BR OVC002 M04/M05 Q1033 BECMG NSC

TAF AMD TAF LFLP
Valid from the 25 at 06:00 until the 26 at 03:00 UTC


250617Z 2506/2603 VRB02KT 7000 NSC
TEMPO 2506/2510 4000 BR BKN002
PROB40
TEMPO 2506/2509 0300 FZFG VV///
TEMPO 2522/2603 4000 BR



MET'MAP, your aeronautical weather chart ! - Copyright ORBIFLY December 2007 - Disclaimer

ORBIFLY MET'MAP TEAM :

Programming & Development : Alexandra Zaïnal
Original concept : Baudouin d'Aumeries
Technical & hardware support : Manuel Goepfert
Assistance : Marc-Olivier Méhu

Contact : metmap@orbifly.com




SOURCES & CREDITS :

   NOAA